Time;durP1;ratioP1;P1;durP2;ratioP2;P2;SDS_P1;SDS_P2;PMS_P1;PMS_P2;Temp;Humidity;BMP_temperature;BMP_pressure;BME280_temperature;BME280_humidity;BME280_pressure;Samples;Min_cycle;Max_cycle;Signal;HPM_P1;HPM_P2
2023/04/10 00:00:32;;;;;;;5.87;5.37;;;9.10;99.90;;;8.99;65.25;95075.91;5072324;28;20489;-59
2023/04/10 00:03:00;;;;;;;6.37;5.77;;;9.00;99.90;;;8.96;65.72;95071.75;5074141;28;20478;-55
2023/04/10 00:05:27;;;;;;;7.57;6.33;;;9.00;99.90;;;8.95;65.78;95072.69;5072105;28;20451;-56
2023/04/10 00:07:54;;;;;;;6.10;5.50;;;9.00;99.90;;;8.93;65.68;95064.13;5073667;28;20558;-59
2023/04/10 00:10:25;;;;;;;7.07;6.37;;;9.00;99.90;;;8.94;65.45;95071.88;5072618;28;20493;-56
2023/04/10 00:12:52;;;;;;;6.07;5.50;;;9.00;99.90;;;8.93;65.69;95072.81;5070928;28;20509;-57
2023/04/10 00:15:20;;;;;;;7.77;6.00;;;9.00;99.90;;;8.95;65.79;95063.03;5072280;28;20531;-60
2023/04/10 00:17:49;;;;;;;6.37;5.73;;;9.00;99.90;;;8.96;65.20;95064.69;5071405;28;20649;-61
2023/04/10 00:20:16;;;;;;;7.80;5.80;;;9.00;99.90;;;8.98;65.60;95056.69;5070577;28;20960;-57
2023/04/10 00:22:44;;;;;;;6.23;5.63;;;9.00;99.90;;;9.01;65.42;95060.88;5071467;28;20477;-57
2023/04/10 00:25:11;;;;;;;8.40;6.93;;;9.00;99.90;;;9.03;65.75;95058.94;5072125;28;20457;-60
2023/04/10 00:27:40;;;;;;;6.70;6.10;;;9.10;99.90;;;9.05;65.88;95051.81;5068075;28;20494;-60
2023/04/10 00:30:08;;;;;;;11.80;6.53;;;9.10;99.90;;;9.07;65.38;95055.13;5073983;28;20494;-56
2023/04/10 00:32:36;;;;;;;8.43;7.07;;;9.10;99.90;;;9.07;65.59;95055.13;5075244;28;20903;-59
2023/04/10 00:35:03;;;;;;;8.20;7.10;;;9.10;99.90;;;9.08;65.24;95056.81;5068806;28;22360;-56
2023/04/10 00:37:31;;;;;;;8.87;7.73;;;9.10;99.90;;;9.06;64.80;95050.81;5069405;28;20475;-57
2023/04/10 00:39:58;;;;;;;9.17;7.80;;;9.10;99.90;;;9.05;64.59;95046.56;5075947;28;20451;-57
2023/04/10 00:42:25;;;;;;;8.43;7.10;;;9.10;99.90;;;9.04;64.75;95050.94;5073226;28;20890;-56
2023/04/10 00:44:54;;;;;;;9.43;7.70;;;9.10;99.90;;;9.04;64.06;95050.13;5072627;28;20497;-56
2023/04/10 00:47:22;;;;;;;8.20;6.93;;;9.10;99.90;;;9.05;63.52;95057.06;5070688;28;20483;-55
2023/04/10 00:49:49;;;;;;;9.03;7.50;;;9.10;99.90;;;9.05;63.47;95041.31;5072019;28;20885;-60
2023/04/10 00:52:16;;;;;;;8.97;7.47;;;9.10;99.90;;;9.07;63.74;95053.31;5063049;28;20548;-60
2023/04/10 00:54:43;;;;;;;8.10;7.23;;;9.10;99.90;;;9.11;64.03;95053.91;5072967;28;20478;-56
2023/04/10 00:57:11;;;;;;;8.10;7.13;;;9.10;99.90;;;9.11;63.23;95046.06;5070538;28;20483;-60
2023/04/10 00:59:38;;;;;;;7.43;6.73;;;9.20;99.90;;;9.12;63.59;95050.31;5071064;28;20978;-56
2023/04/10 01:02:07;;;;;;;9.70;7.60;;;9.10;99.90;;;9.12;63.86;95045.94;5071869;28;20478;-57
2023/04/10 01:04:35;;;;;;;8.23;7.40;;;9.10;99.90;;;9.17;63.97;95044.69;5071384;28;20497;-61
2023/04/10 01:07:07;;;;;;;9.63;7.57;;;9.20;99.90;;;9.18;63.86;95044.56;5071270;28;20478;-57
2023/04/10 01:09:41;;;;;;;9.20;7.47;;;9.20;99.90;;;9.20;63.78;95040.03;5067208;28;20462;-56
2023/04/10 01:12:29;;;;;;;8.07;7.23;;;9.20;99.90;;;9.19;63.81;95035.75;5072417;28;20502;-60
2023/04/10 01:15:01;;;;;;;7.00;6.10;;;9.20;99.90;;;9.19;63.82;95029.69;5077082;28;20606;-57
2023/04/10 01:17:33;;;;;;;8.97;6.73;;;9.20;99.90;;;9.17;63.67;95024.56;5078100;28;20466;-56
2023/04/10 01:20:07;;;;;;;7.53;5.97;;;9.20;99.90;;;9.16;64.20;95030.75;5073874;28;20446;-56
2023/04/10 01:22:36;;;;;;;6.27;5.60;;;9.20;99.90;;;9.12;64.36;95029.31;5076687;28;20484;-55
2023/04/10 01:25:28;;;;;;;6.53;5.93;;;9.20;99.90;;;9.07;64.25;95028.88;5078270;28;20458;-61
2023/04/10 01:28:11;;;;;;;8.00;7.13;;;9.10;99.90;;;9.02;64.74;95031.06;5074602;28;20513;-54
2023/04/10 01:30:40;;;;;;;6.30;5.70;;;9.10;99.90;;;8.98;64.76;95025.22;5072852;28;20557;-60
2023/04/10 01:33:09;;;;;;;6.20;5.27;;;9.00;99.90;;;8.95;64.71;95030.72;5076036;28;20483;-56
2023/04/10 01:35:37;;;;;;;5.80;5.30;;;9.00;99.90;;;8.91;65.24;95024.91;5076575;28;20566;-54
2023/04/10 01:38:05;;;;;;;6.17;5.60;;;9.00;99.90;;;8.90;65.12;95033.72;5077349;28;20829;-56
2023/04/10 01:40:32;;;;;;;6.10;5.50;;;9.00;99.90;;;8.86;64.85;95027.06;5077351;28;20462;-56
2023/04/10 01:43:00;;;;;;;6.17;5.60;;;8.90;99.90;;;8.80;65.11;95027.56;5079018;28;20467;-56
2023/04/10 01:45:28;;;;;;;7.20;6.27;;;8.90;99.90;;;8.79;65.22;95023.28;5079747;28;20467;-55
2023/04/10 01:47:56;;;;;;;8.17;5.73;;;8.90;99.90;;;8.77;65.11;95022.59;5081185;28;20997;-56
2023/04/10 01:50:24;;;;;;;7.03;6.43;;;8.90;99.90;;;8.77;65.95;95033.06;5078071;28;20453;-61
2023/04/10 01:52:52;;;;;;;11.77;6.50;;;8.80;99.90;;;8.78;65.82;95024.22;5076307;28;20470;-60
2023/04/10 01:55:20;;;;;;;9.27;7.50;;;8.80;99.90;;;8.81;66.25;95029.22;5079224;28;20455;-56
2023/04/10 01:57:48;;;;;;;11.50;7.17;;;8.90;99.90;;;8.83;66.22;95034.34;5074955;28;20463;-55
2023/04/10 02:00:16;;;;;;;10.27;8.13;;;8.90;99.90;;;8.83;67.07;95035.19;5077698;28;20489;-55
2023/04/10 02:02:43;;;;;;;11.63;8.10;;;8.90;99.90;;;8.84;66.45;95039.47;5069221;28;20478;-60
2023/04/10 02:05:12;;;;;;;11.93;9.17;;;8.90;99.90;;;8.85;66.56;95030.66;5073093;28;20500;-60
2023/04/10 02:07:42;;;;;;;11.37;9.63;;;8.90;99.90;;;8.85;66.32;95037.69;5073816;28;20478;-60
2023/04/10 02:10:13;;;;;;;11.97;8.63;;;8.90;99.90;;;8.83;66.37;95027.31;5073449;28;20454;-61
2023/04/10 02:12:44;;;;;;;11.30;8.30;;;8.90;99.90;;;8.81;66.81;95029.22;5072164;28;20491;-57
2023/04/10 02:15:11;;;;;;;10.40;7.80;;;8.90;99.90;;;8.79;66.13;95018.84;5073522;28;20458;-54
2023/04/10 02:17:39;;;;;;;8.27;6.70;;;8.90;99.90;;;8.77;66.47;95019.97;5067564;28;20479;-57
2023/04/10 02:20:07;;;;;;;9.33;6.90;;;8.90;99.90;;;8.75;66.28;95020.09;5073962;28;20458;-57
2023/04/10 02:22:36;;;;;;;7.50;6.80;;;8.80;99.90;;;8.72;66.82;95024.72;5075757;28;20565;-55
2023/04/10 02:25:05;;;;;;;8.23;7.30;;;8.80;99.90;;;8.67;66.91;95013.78;5070609;28;20465;-54
2023/04/10 02:27:34;;;;;;;8.20;7.43;;;8.80;99.90;;;8.68;66.75;95015.47;5071594;28;21056;-60
2023/04/10 02:30:02;;;;;;;8.90;6.80;;;8.70;99.90;;;8.69;66.77;95011.88;5070662;28;20458;-58
2023/04/10 02:32:30;;;;;;;10.20;7.60;;;8.70;99.90;;;8.69;66.43;95009.25;5071831;28;20548;-55
2023/04/10 02:34:57;;;;;;;8.80;7.30;;;8.80;99.90;;;8.68;66.85;95002.34;5070558;28;20455;-54
2023/04/10 02:37:24;;;;;;;12.80;7.80;;;8.80;99.90;;;8.68;66.87;95000.56;5068505;28;20503;-56
2023/04/10 02:39:54;;;;;;;9.60;8.53;;;8.70;99.90;;;8.70;66.71;95006.50;5070393;28;21011;-56
2023/04/10 02:42:21;;;;;;;8.23;7.43;;;8.80;99.90;;;8.73;66.80;94992.31;5060523;28;20474;-59
2023/04/10 02:44:48;;;;;;;9.30;7.17;;;8.80;99.90;;;8.75;67.26;95004.34;5064892;28;20470;-55
2023/04/10 02:47:17;;;;;;;17.23;12.83;;;8.80;99.90;;;8.78;66.95;94992.75;5071544;28;20537;-61
2023/04/10 02:49:44;;;;;;;16.90;9.43;;;8.80;99.90;;;8.78;66.88;94990.97;5073691;28;20985;-60
2023/04/10 02:52:12;;;;;;;17.00;9.80;;;8.80;99.90;;;8.78;66.59;94992.75;5068896;28;20498;-56
2023/04/10 02:54:39;;;;;;;10.73;8.43;;;8.80;99.90;;;8.77;66.68;94988.50;5074977;28;22325;-57
2023/04/10 02:57:08;;;;;;;9.73;8.43;;;8.80;99.90;;;8.78;66.68;94975.25;5067559;28;20475;-56
2023/04/10 02:59:35;;;;;;;8.07;7.20;;;8.80;99.90;;;8.78;66.93;94977.03;5077368;28;20445;-60
2023/04/10 03:02:02;;;;;;;12.13;8.50;;;8.80;99.90;;;8.77;66.80;94980.63;5079559;28;20466;-54
2023/04/10 03:04:32;;;;;;;10.47;8.20;;;8.80;99.90;;;8.77;66.74;94978.81;5075196;28;20558;-60
2023/04/10 03:06:59;;;;;;;7.83;7.03;;;8.80;99.90;;;8.78;66.87;94977.03;5070833;28;20535;-60
2023/04/10 03:09:27;;;;;;;13.63;7.27;;;8.80;99.90;;;8.77;66.76;94981.44;5075464;28;20450;-56
2023/04/10 03:11:54;;;;;;;8.00;6.87;;;8.80;99.90;;;8.72;66.80;94978.38;5075054;28;20490;-57
2023/04/10 03:14:23;;;;;;;12.20;7.77;;;8.80;99.90;;;8.71;66.91;94981.13;5070573;28;20464;-56
2023/04/10 03:16:50;;;;;;;8.93;6.83;;;8.80;99.90;;;8.70;67.00;94979.44;5066673;28;20896;-62
2023/04/10 03:19:17;;;;;;;9.60;8.00;;;8.80;99.90;;;8.69;67.03;94988.25;5070275;28;20794;-62
2023/04/10 03:21:46;;;;;;;11.20;9.20;;;8.80;99.90;;;8.69;67.22;94993.50;5068253;28;20560;-57
2023/04/10 03:24:13;;;;;;;7.87;7.07;;;8.80;99.90;;;8.68;67.21;94990.06;5073734;28;20631;-57
2023/04/10 03:26:40;;;;;;;21.40;7.80;;;8.70;99.90;;;8.66;67.28;94991.13;5071172;28;20507;-60
2023/04/10 03:29:08;;;;;;;9.27;7.93;;;8.70;99.90;;;8.63;67.29;94992.25;5066765;28;20486;-61
2023/04/10 03:31:36;;;;;;;9.80;7.60;;;8.70;99.90;;;8.59;67.32;94996.88;5073377;28;20876;-60
2023/04/10 03:34:04;;;;;;;8.80;7.43;;;8.70;99.90;;;8.57;67.20;94995.34;5072299;28;20465;-60
2023/04/10 03:36:31;;;;;;;9.97;7.57;;;8.60;99.90;;;8.55;67.71;94998.09;5072517;28;20465;-60
2023/04/10 03:38:59;;;;;;;8.60;7.60;;;8.60;99.90;;;8.51;67.38;94996.69;5068235;28;21049;-59
2023/04/10 03:41:26;;;;;;;8.27;7.20;;;8.60;99.90;;;8.47;67.32;94995.25;5070607;28;20476;-59
2023/04/10 03:43:53;;;;;;;10.40;7.60;;;8.60;99.90;;;8.45;67.47;94999.78;5065880;28;20492;-54
2023/04/10 03:46:21;;;;;;;8.03;7.00;;;8.50;99.90;;;8.42;67.71;95002.63;5072445;28;20474;-56
2023/04/10 03:48:51;;;;;;;8.80;7.87;;;8.50;99.90;;;8.39;67.58;95003.69;5066631;28;20485;-56
2023/04/10 03:51:19;;;;;;;11.10;8.50;;;8.40;99.90;;;8.36;67.73;94997.88;5072247;28;20446;-57
2023/04/10 03:53:46;;;;;;;10.03;8.90;;;8.40;99.90;;;8.35;67.67;94996.19;5069335;28;20484;-56
2023/04/10 03:56:13;;;;;;;18.80;12.30;;;8.40;99.90;;;8.35;68.48;95001.44;5071251;28;20464;-59
2023/04/10 03:58:41;;;;;;;13.30;10.00;;;8.40;99.90;;;8.34;67.80;95005.03;5078863;28;20825;-57
2023/04/10 04:01:08;;;;;;;17.60;9.70;;;8.40;99.90;;;8.32;68.22;95006.94;5070938;28;20454;-59
2023/04/10 04:03:35;;;;;;;14.40;10.43;;;8.40;99.90;;;8.31;67.46;95010.53;5070139;28;20485;-59
2023/04/10 04:06:05;;;;;;;15.50;10.40;;;8.40;99.90;;;8.30;68.08;95003.59;5066787;28;20453;-58
2023/04/10 04:08:35;;;;;;;14.70;10.60;;;8.40;99.90;;;8.30;67.99;95011.47;5071337;28;21051;-58
2023/04/10 04:11:02;;;;;;;15.63;11.93;;;8.30;99.90;;;8.30;68.18;95008.84;5065843;28;20478;-55
2023/04/10 04:13:29;;;;;;;11.07;9.90;;;8.40;99.90;;;8.28;68.18;95013.38;5066159;28;20494;-55
2023/04/10 04:15:57;;;;;;;14.33;10.37;;;8.40;99.90;;;8.29;67.96;95012.41;5066506;28;20518;-61
2023/04/10 04:18:24;;;;;;;14.40;10.10;;;8.40;99.90;;;8.30;68.01;95014.09;5070325;28;20890;-61
2023/04/10 04:20:51;;;;;;;12.57;9.83;;;8.30;99.90;;;8.31;68.25;95010.53;5064970;28;20459;-60
2023/04/10 04:23:20;;;;;;;11.13;9.93;;;8.40;99.90;;;8.31;68.25;95016.59;5065400;28;20465;-55
2023/04/10 04:25:48;;;;;;;15.50;11.00;;;8.40;99.90;;;8.34;68.63;95011.09;5069844;28;20443;-58
2023/04/10 04:28:16;;;;;;;17.00;10.60;;;8.40;99.90;;;8.37;68.19;95017.91;5066920;28;20485;-57
2023/04/10 04:30:43;;;;;;;18.33;10.23;;;8.40;99.90;;;8.39;68.54;95014.19;5065891;28;20466;-56
2023/04/10 04:33:10;;;;;;;12.43;10.23;;;8.40;99.90;;;8.41;68.06;95017.53;5062786;28;20502;-56
2023/04/10 04:35:38;;;;;;;25.90;12.30;;;8.50;99.90;;;8.43;68.12;95013.03;5061677;28;20878;-56
2023/04/10 04:38:05;;;;;;;26.63;15.47;;;8.50;99.90;;;8.46;68.45;95018.97;5068720;28;20486;-60
2023/04/10 04:40:34;;;;;;;20.40;13.67;;;8.50;99.90;;;8.49;67.98;95019.56;5063223;28;20454;-60
2023/04/10 04:43:01;;;;;;;18.90;13.03;;;8.50;99.90;;;8.52;68.15;95029.81;5069610;28;20482;-55
2023/04/10 04:45:29;;;;;;;18.20;12.53;;;8.60;99.90;;;8.56;67.87;95025.97;5063056;28;20468;-60
2023/04/10 04:47:57;;;;;;;15.40;10.97;;;8.60;99.90;;;8.60;68.15;95032.63;5062962;28;20938;-61
2023/04/10 04:50:24;;;;;;;17.00;11.97;;;8.60;99.90;;;8.66;68.03;95033.94;5065519;28;20470;-56
2023/04/10 04:52:51;;;;;;;14.67;11.50;;;8.70;99.90;;;8.69;67.90;95031.06;5075301;28;20490;-60
2023/04/10 04:55:19;;;;;;;16.40;11.87;;;8.70;99.90;;;8.72;67.62;95035.22;5067707;28;20462;-58
2023/04/10 04:57:47;;;;;;;18.47;12.47;;;8.80;99.90;;;8.75;68.19;95037.59;5060432;28;20511;-60
2023/04/10 05:00:15;;;;;;;15.40;11.00;;;8.80;99.90;;;8.77;68.02;95041.75;5069694;28;20458;-59
2023/04/10 05:02:42;;;;;;;18.53;14.00;;;8.80;99.90;;;8.79;67.45;95036.38;5065713;28;20895;-60
2023/04/10 05:05:10;;;;;;;16.90;12.07;;;8.80;99.90;;;8.83;67.41;95048.31;5077233;28;20454;-61
2023/04/10 05:07:37;;;;;;;17.37;12.80;;;8.80;99.90;;;8.87;67.21;95048.88;5073910;28;20491;-56
2023/04/10 05:10:06;;;;;;;14.53;11.03;;;8.90;99.90;;;8.88;67.15;95048.75;5080488;28;20450;-61
2023/04/10 05:12:33;;;;;;;14.33;10.80;;;8.90;99.90;;;8.90;67.24;95049.44;5069493;28;21187;-56
2023/04/10 05:15:02;;;;;;;10.83;8.97;;;8.90;99.90;;;8.93;67.01;95043.97;5075012;28;20474;-59
2023/04/10 05:17:30;;;;;;;12.03;9.70;;;9.00;99.90;;;9.01;67.11;95045.13;5070977;28;20490;-60
2023/04/10 05:19:57;;;;;;;14.00;10.00;;;9.00;99.90;;;9.07;66.58;95047.25;5068019;28;20482;-61
2023/04/10 05:22:26;;;;;;;16.20;10.57;;;9.10;99.90;;;9.11;66.72;95046.88;5067495;28;20488;-55
2023/04/10 05:24:54;;;;;;;15.47;10.43;;;9.10;99.90;;;9.17;66.97;95040.28;5076016;28;20466;-56
2023/04/10 05:27:21;;;;;;;13.90;11.00;;;9.20;99.90;;;9.24;66.72;95049.31;5077656;28;20462;-57
2023/04/10 05:29:49;;;;;;;15.60;10.90;;;9.30;99.90;;;9.29;66.38;95049.75;5076268;28;20454;-56
2023/04/10 05:32:17;;;;;;;14.53;10.77;;;9.30;99.90;;;9.37;66.27;95041.22;5077171;28;20489;-56
2023/04/10 05:34:45;;;;;;;17.90;10.63;;;9.40;99.90;;;9.47;66.34;95051.81;5077583;28;20442;-61
2023/04/10 05:37:12;;;;;;;16.90;10.70;;;9.40;99.90;;;9.58;66.12;95050.91;5077925;28;20474;-60
2023/04/10 05:39:39;;;;;;;14.67;10.73;;;9.50;99.90;;;9.69;66.22;95050.84;5075358;28;20497;-62
2023/04/10 05:42:07;;;;;;;12.00;10.40;;;9.60;99.90;;;9.83;65.77;95047.03;5072387;28;20471;-56
2023/04/10 05:44:34;;;;;;;13.67;9.53;;;9.80;99.90;;;9.98;65.60;95050.97;5078730;28;20457;-54
2023/04/10 05:47:01;;;;;;;14.47;10.70;;;9.90;99.90;;;10.15;65.44;95046.06;5076641;28;20474;-54
2023/04/10 05:49:30;;;;;;;21.43;12.47;;;10.10;99.90;;;10.31;65.04;95046.38;5077887;28;20453;-57
2023/04/10 05:51:57;;;;;;;14.43;11.93;;;10.20;99.90;;;10.49;64.44;95049.25;5076992;28;20469;-62
2023/04/10 05:54:24;;;;;;;14.37;10.77;;;10.40;99.90;;;10.64;64.23;95046.22;5071872;28;20454;-62
2023/04/10 05:56:52;;;;;;;13.27;10.47;;;10.50;99.90;;;10.79;63.79;95049.31;5076118;28;20511;-59
2023/04/10 05:59:19;;;;;;;15.47;10.70;;;10.70;99.90;;;10.93;63.67;95046.25;5076310;28;20506;-56
2023/04/10 06:01:47;;;;;;;15.10;9.73;;;10.80;99.90;;;11.12;63.88;95058.59;5076045;28;20800;-57
2023/04/10 06:04:14;;;;;;;17.20;12.13;;;11.00;99.90;;;11.30;63.72;95053.47;5077404;28;20504;-55
2023/04/10 06:06:43;;;;;;;13.90;11.70;;;11.20;99.90;;;11.47;62.72;95049.28;5080092;28;20459;-62
2023/04/10 06:09:10;;;;;;;17.90;12.33;;;11.40;99.90;;;11.64;63.08;95050.38;5080020;28;20850;-56
2023/04/10 06:11:37;;;;;;;21.30;12.47;;;11.50;99.90;;;11.83;62.76;95049.50;5078681;28;20481;-61
2023/04/10 06:14:05;;;;;;;18.27;11.90;;;11.70;99.90;;;11.97;62.02;95049.06;5076754;28;20529;-57
2023/04/10 06:16:32;;;;;;;20.40;13.83;;;11.80;99.90;;;12.07;61.25;95046.41;5079149;28;20465;-57
2023/04/10 06:18:59;;;;;;;17.30;13.27;;;11.90;99.90;;;12.13;60.93;95044.97;5079134;28;20511;-60
2023/04/10 06:21:26;;;;;;;14.83;12.40;;;12.00;99.40;;;12.20;60.50;95036.34;5076632;28;20458;-60
2023/04/10 06:23:55;;;;;;;18.50;13.27;;;12.10;99.00;;;12.33;60.05;95037.81;5076914;28;20501;-55
2023/04/10 06:26:22;;;;;;;17.67;13.60;;;12.20;98.60;;;12.47;59.99;95032.06;5078856;28;20477;-61
2023/04/10 06:28:50;;;;;;;13.57;12.03;;;12.40;98.70;;;12.63;59.41;95036.69;5078734;28;20898;-60
2023/04/10 06:31:20;;;;;;;18.57;12.73;;;12.50;98.00;;;12.79;59.06;95028.09;5078112;28;20453;-57
2023/04/10 06:33:48;;;;;;;28.30;14.13;;;12.60;98.00;;;12.96;58.66;95028.28;5075072;28;20555;-59
2023/04/10 06:36:15;;;;;;;19.73;13.30;;;12.80;97.90;;;13.16;58.19;95034.22;5079334;28;20461;-56
2023/04/10 06:38:43;;;;;;;19.00;11.90;;;13.00;97.50;;;13.35;58.09;95028.78;5074218;28;20539;-60
2023/04/10 06:41:11;;;;;;;15.87;11.83;;;13.20;97.10;;;13.49;56.98;95031.88;5077149;28;20607;-56
2023/04/10 06:43:39;;;;;;;22.10;10.87;;;13.30;96.10;;;13.54;56.59;95034.88;5077134;28;20482;-62
2023/04/10 06:46:07;;;;;;;16.63;13.07;;;13.40;96.10;;;13.55;56.52;95040.00;5079191;28;20527;-60
2023/04/10 06:48:34;;;;;;;21.43;12.43;;;13.50;96.00;;;13.56;56.79;95039.03;5076623;28;20466;-61
2023/04/10 06:51:02;;;;;;;15.80;12.17;;;13.50;95.60;;;13.55;56.33;95042.66;5076521;28;20453;-57
2023/04/10 06:53:29;;;;;;;17.10;11.73;;;13.50;95.20;;;13.45;55.36;95039.28;5077715;28;20495;-56
2023/04/10 06:55:57;;;;;;;18.00;12.70;;;13.40;94.50;;;13.29;55.47;95047.88;5071141;28;20443;-57
2023/04/10 06:58:26;;;;;;;15.93;11.70;;;13.30;94.30;;;13.16;55.38;95040.34;5072578;28;20489;-62
2023/04/10 07:00:53;;;;;;;18.87;11.30;;;13.20;94.00;;;13.05;55.63;95040.56;5076082;28;20520;-56
2023/04/10 07:03:20;;;;;;;16.47;11.90;;;13.00;94.00;;;12.91;55.29;95041.91;5075822;28;20474;-56
2023/04/10 07:05:47;;;;;;;16.50;12.90;;;12.90;93.70;;;12.79;56.09;95046.56;5078538;28;20451;-61
2023/04/10 07:08:15;;;;;;;18.07;11.97;;;12.80;94.20;;;12.66;56.20;95046.94;5077891;28;20862;-56
2023/04/10 07:10:43;;;;;;;22.00;12.73;;;12.70;94.10;;;12.58;55.73;95033.66;5075027;28;20462;-60
2023/04/10 07:13:10;;;;;;;24.90;11.23;;;12.60;94.30;;;12.49;54.40;95048.56;5077075;28;20487;-55
2023/04/10 07:15:39;;;;;;;12.53;10.30;;;12.50;93.00;;;12.38;54.29;95038.22;5077130;28;20531;-55
2023/04/10 07:18:06;;;;;;;17.97;12.30;;;12.40;92.70;;;12.27;55.47;95041.03;5076915;28;20466;-55
2023/04/10 07:20:33;;;;;;;12.07;10.37;;;12.30;93.40;;;12.18;55.33;95048.84;5074946;28;20455;-56
2023/04/10 07:23:00;;;;;;;17.10;11.23;;;12.20;93.20;;;12.11;55.91;95045.13;5077037;28;20520;-61
2023/04/10 07:25:28;;;;;;;20.23;10.00;;;12.10;93.70;;;12.08;56.02;95049.84;5076677;28;20621;-56
2023/04/10 07:27:55;;;;;;;12.97;10.57;;;12.00;93.90;;;12.04;55.95;95041.41;5077062;28;20500;-61
2023/04/10 07:30:22;;;;;;;13.83;10.50;;;12.00;93.80;;;12.00;55.81;95045.31;5074600;28;20458;-56
2023/04/10 07:32:51;;;;;;;12.10;10.07;;;12.00;93.70;;;11.91;56.20;95038.22;5077886;28;20494;-60
2023/04/10 07:35:19;;;;;;;13.83;10.10;;;11.90;94.00;;;11.91;55.80;95044.31;5076023;28;20473;-57
2023/04/10 07:37:50;;;;;;;19.33;10.63;;;11.90;93.90;;;11.86;56.21;95040.47;5078158;28;20473;-55
2023/04/10 07:40:17;;;;;;;12.97;10.83;;;11.80;93.80;;;11.76;55.71;95051.88;5073397;28;20708;-56
2023/04/10 07:42:45;;;;;;;19.07;13.37;;;11.80;93.60;;;11.71;56.43;95053.25;5073973;28;20477;-62
2023/04/10 07:45:12;;;;;;;22.90;13.13;;;11.70;94.20;;;11.65;56.73;95052.06;5076955;28;20461;-59
2023/04/10 07:47:40;;;;;;;18.77;13.60;;;11.70;94.40;;;11.63;56.91;95048.69;5075418;28;20470;-57
2023/04/10 07:50:10;;;;;;;17.57;13.60;;;11.70;94.70;;;11.64;57.05;95055.66;5074650;28;20458;-56
2023/04/10 07:52:37;;;;;;;16.43;13.17;;;11.60;94.80;;;11.70;57.23;95049.81;5074003;28;21512;-57
2023/04/10 07:55:05;;;;;;;17.80;13.00;;;11.60;95.00;;;11.78;56.97;95049.91;5074360;28;20458;-57
2023/04/10 07:57:32;;;;;;;27.90;13.13;;;11.70;95.00;;;11.89;56.69;95053.38;5077249;28;20473;-59
2023/04/10 07:59:59;;;;;;;20.50;14.57;;;11.80;94.70;;;11.93;55.93;95054.75;5077790;28;20451;-56
2023/04/10 08:02:27;;;;;;;22.27;13.13;;;11.90;94.20;;;11.93;56.41;95044.22;5073914;28;20466;-55
2023/04/10 08:04:54;;;;;;;21.57;14.03;;;11.90;94.40;;;11.98;56.58;95042.81;5073725;28;20457;-62
2023/04/10 08:07:23;;;;;;;16.30;12.03;;;11.90;94.60;;;12.13;56.32;95042.34;5077878;28;20479;-61
2023/04/10 08:09:50;;;;;;;17.17;12.80;;;12.00;94.40;;;12.28;55.84;95043.53;5076698;28;20529;-55
2023/04/10 08:12:17;;;;;;;15.70;12.27;;;12.20;94.20;;;12.40;55.70;95044.16;5074086;28;20858;-55
2023/04/10 08:14:45;;;;;;;31.33;12.23;;;12.30;94.10;;;12.51;55.04;95041.31;5073942;28;20490;-55
2023/04/10 08:17:13;;;;;;;18.00;12.87;;;12.40;93.50;;;12.67;54.66;95037.22;5073807;28;20513;-60
2023/04/10 08:19:41;;;;;;;15.20;10.60;;;12.60;93.40;;;12.81;52.45;95033.22;5076430;28;20458;-61
2023/04/10 08:22:09;;;;;;;12.40;9.47;;;12.70;91.30;;;12.90;53.26;95035.81;5073343;28;21022;-56
2023/04/10 08:24:38;;;;;;;15.57;10.10;;;12.80;91.40;;;12.97;52.77;95035.22;5074954;28;20469;-55
2023/04/10 08:27:05;;;;;;;9.07;8.00;;;12.90;91.20;;;13.03;52.58;95027.50;5075934;28;20989;-60
2023/04/10 08:29:32;;;;;;;10.17;8.70;;;13.00;90.70;;;13.21;53.07;95035.41;5075769;28;20450;-61
2023/04/10 08:32:00;;;;;;;9.27;8.37;;;13.20;91.30;;;13.47;50.05;95025.94;5072685;28;20531;-60
2023/04/10 08:34:27;;;;;;;11.37;9.03;;;13.40;87.80;;;13.75;48.48;95034.53;5075263;28;20489;-57
2023/04/10 08:36:55;;;;;;;9.90;8.20;;;13.70;84.50;;;14.03;48.48;95029.91;5076090;28;20569;-61
2023/04/10 08:39:22;;;;;;;10.00;7.90;;;14.00;82.90;;;14.26;49.13;95027.53;5076939;28;20529;-61
2023/04/10 08:41:51;;;;;;;8.07;6.73;;;14.20;84.20;;;14.43;47.72;95023.16;5073788;28;20446;-57
2023/04/10 08:44:18;;;;;;;8.07;7.23;;;14.40;80.20;;;14.43;49.13;95038.22;5074206;28;20460;-61
2023/04/10 08:46:45;;;;;;;9.40;8.40;;;14.40;83.00;;;14.34;46.98;95021.47;5076011;28;20450;-61
2023/04/10 08:49:18;;;;;;;8.17;7.37;;;14.40;78.40;;;14.22;48.31;95028.03;5076586;28;20452;-60
2023/04/10 08:51:49;;;;;;;9.43;7.80;;;14.20;80.00;;;14.04;48.78;95015.72;5075380;28;20604;-56
2023/04/10 08:54:19;;;;;;;8.87;7.30;;;14.10;79.90;;;13.88;48.26;95029.69;5075978;28;20625;-61
2023/04/10 08:56:51;;;;;;;8.70;7.83;;;13.90;79.20;;;13.80;47.63;95025.19;5074069;28;20966;-60
2023/04/10 08:59:19;;;;;;;11.60;8.17;;;13.80;77.70;;;13.69;48.02;95033.34;5074407;28;21222;-60
2023/04/10 09:01:46;;;;;;;16.60;7.83;;;13.70;77.90;;;13.67;48.76;95024.75;5076005;28;20486;-58
2023/04/10 09:04:14;;;;;;;14.03;7.57;;;13.60;79.40;;;13.68;48.31;95022.91;5075482;28;20454;-61
2023/04/10 09:06:41;;;;;;;11.17;8.10;;;13.60;79.40;;;13.74;48.33;95024.94;5075581;28;20451;-55
2023/04/10 09:09:08;;;;;;;10.17;8.00;;;13.70;80.40;;;13.90;47.64;95021.59;5073757;28;20513;-60
2023/04/10 09:12:03;;;;;;;15.03;8.60;;;13.80;77.80;;;14.05;44.68;95008.59;5070817;28;20840;-55
2023/04/10 09:14:31;;;;;;;10.43;8.07;;;13.90;75.00;;;14.08;45.81;95017.06;5070771;28;20481;-60
2023/04/10 09:17:18;;;;;;;17.63;8.00;;;14.00;73.50;;;14.03;44.38;95003.47;5074315;28;20475;-56
2023/04/10 09:19:46;;;;;;;10.70;7.90;;;14.00;70.20;;;13.92;46.12;95016.97;5069976;28;20466;-61
2023/04/10 09:22:13;;;;;;;9.40;7.67;;;13.90;74.00;;;13.80;44.85;95013.75;5071539;28;20475;-61
2023/04/10 09:24:42;;;;;;;8.40;7.57;;;13.80;71.10;;;13.73;47.24;95016.19;5068054;28;20455;-57
2023/04/10 09:27:11;;;;;;;11.20;8.83;;;13.70;74.80;;;13.65;46.20;95008.22;5074131;28;21021;-57
2023/04/10 09:29:47;;;;;;;10.87;8.17;;;13.60;73.10;;;13.52;47.41;95003.31;5070296;28;20981;-60
2023/04/10 09:32:25;;;;;;;9.77;8.77;;;13.50;75.30;;;13.43;48.01;95002.47;5067750;28;20501;-57
2023/04/10 09:34:53;;;;;;;10.30;8.57;;;13.40;76.30;;;13.35;48.50;95001.56;5071420;28;20470;-61
2023/04/10 09:37:21;;;;;;;8.57;7.73;;;13.40;78.00;;;13.32;48.94;95012.41;5076559;28;20555;-61
2023/04/10 09:39:49;;;;;;;9.67;8.63;;;13.30;78.50;;;13.32;49.07;95004.47;5077367;28;20485;-56
2023/04/10 09:42:18;;;;;;;10.63;8.77;;;13.30;79.10;;;13.21;49.16;95006.38;5077410;28;20483;-55
2023/04/10 09:44:46;;;;;;;8.67;7.87;;;13.20;79.00;;;13.10;49.37;95003.97;5079058;28;20544;-55
2023/04/10 09:47:18;;;;;;;10.57;8.57;;;13.10;78.90;;;13.00;49.19;95011.97;5081382;28;20502;-61
2023/04/10 09:49:47;;;;;;;8.70;7.87;;;13.00;79.00;;;12.94;49.59;94996.75;5076050;28;20497;-57
2023/04/10 09:52:19;;;;;;;8.27;6.87;;;12.90;79.60;;;12.89;48.83;95007.75;5076803;28;20478;-56
2023/04/10 09:54:47;;;;;;;8.67;7.00;;;12.90;78.70;;;12.89;49.76;95018.31;5078110;28;20481;-57
2023/04/10 09:57:18;;;;;;;9.03;7.37;;;12.90;80.20;;;12.88;49.49;95005.25;5077533;28;20462;-56
2023/04/10 09:59:48;;;;;;;9.73;8.77;;;12.80;80.00;;;12.85;49.68;95009.03;5079597;28;20755;-61
2023/04/10 10:02:15;;;;;;;8.80;7.90;;;12.80;80.30;;;12.81;49.64;94999.75;5074628;28;20480;-57
2023/04/10 10:04:43;;;;;;;9.07;8.13;;;12.80;80.10;;;12.80;50.22;95002.56;5076515;28;20446;-56
2023/04/10 10:07:10;;;;;;;10.10;8.80;;;12.80;81.40;;;12.81;50.43;95004.19;5071759;28;20470;-61
2023/04/10 10:09:37;;;;;;;9.83;8.83;;;12.80;82.10;;;12.86;50.54;95010.69;5074831;28;20451;-60
2023/04/10 10:12:05;;;;;;;9.10;8.10;;;12.80;82.00;;;12.94;50.36;94998.56;5075647;28;20466;-61
2023/04/10 10:14:35;;;;;;;12.70;9.53;;;12.80;81.80;;;13.03;50.35;95008.22;5078269;28;20568;-56
2023/04/10 10:17:06;;;;;;;8.33;7.50;;;12.90;82.30;;;13.07;49.97;94993.72;5073206;28;20547;-57
2023/04/10 10:19:38;;;;;;;11.97;7.93;;;13.00;81.50;;;13.06;50.36;94995.53;5075047;28;20446;-62
2023/04/10 10:22:07;;;;;;;9.07;8.13;;;13.00;82.00;;;13.04;50.55;94983.44;5070154;28;20469;-57
2023/04/10 10:24:35;;;;;;;9.27;8.20;;;13.00;82.40;;;13.02;50.62;94982.78;5072140;28;20461;-61